Terminal Aerodrome Forecast
Issued by NWS Paducah, KY

Home | Current Version | Previous Version | Text Only | Print | Product List | Glossary On
Versions: 1 2 3 4 5 6 7 8 9 10 11 12 13 14 15 16 17 18 19 20 21 22
000
FTUS43 KPAH 012212 AAB
TAFPAH
TAF AMD
KPAH 012212Z 0122/0218 24012G19KT P6SM BKN035
     FM020000 22009KT P6SM SCT035 BKN250
     FM020300 17004KT 4SM SHRA BR VCTS SCT025CB BKN050
     FM021200 18004KT P6SM SCT010 BKN025 PROB30 0212/0218 -SHRA=

USA.gov is the U.S. government's official web portal to all federal, state and local government web resources and services.